sensor_id;sensor_type;location;lat;lon;timestamp;pressure;altitude;pressure_sealevel;temperature;humidity
48358;BME280;41929;51.478;-0.026;2022-12-10T00:00:15;78647.53;;;-143.00;100.00
48358;BME280;41929;51.478;-0.026;2022-12-10T00:02:40;78659.38;;;-143.00;100.00
48358;BME280;41929;51.478;-0.026;2022-12-10T00:05:06;78651.50;;;-143.00;100.00
48358;BME280;41929;51.478;-0.026;2022-12-10T00:07:31;78659.38;;;-143.00;100.00
48358;BME280;41929;51.478;-0.026;2022-12-10T00:09:57;78663.34;;;-143.00;100.00
48358;BME280;41929;51.478;-0.026;2022-12-10T00:12:22;78671.22;;;-143.00;100.00
48358;BME280;41929;51.478;-0.026;2022-12-10T00:14:47;78667.28;;;-143.00;100.00
48358;BME280;41929;51.478;-0.026;2022-12-10T00:17:13;78677.16;;;-143.00;100.00
48358;BME280;41929;51.478;-0.026;2022-12-10T00:19:38;78677.16;;;-143.00;100.00
48358;BME280;41929;51.478;-0.026;2022-12-10T00:22:04;78655.44;;;-143.00;100.00
48358;BME280;41929;51.478;-0.026;2022-12-10T00:24:29;78643.59;;;-143.00;100.00
48358;BME280;41929;51.478;-0.026;2022-12-10T00:26:54;78637.69;;;-143.00;100.00
48358;BME280;41929;51.478;-0.026;2022-12-10T00:29:20;78627.81;;;-143.00;100.00
48358;BME280;41929;51.478;-0.026;2022-12-10T00:31:45;78627.81;;;-143.00;100.00
48358;BME280;41929;51.478;-0.026;2022-12-10T00:34:11;78623.88;;;-143.00;100.00
48358;BME280;41929;51.478;-0.026;2022-12-10T00:36:42;78631.75;;;-143.00;100.00
48358;BME280;41929;51.478;-0.026;2022-12-10T00:39:10;78635.69;;;-143.00;100.00
48358;BME280;41929;51.478;-0.026;2022-12-10T00:41:36;78631.75;;;-143.00;100.00
48358;BME280;41929;51.478;-0.026;2022-12-10T00:44:01;78612.03;;;-143.00;100.00
48358;BME280;41929;51.478;-0.026;2022-12-10T00:46:27;78606.09;;;-143.00;100.00
48358;BME280;41929;51.478;-0.026;2022-12-10T00:48:53;78612.03;;;-143.00;100.00
48358;BME280;41929;51.478;-0.026;2022-12-10T00:51:23;78629.78;;;-143.00;100.00
48358;BME280;41929;51.478;-0.026;2022-12-10T00:53:51;78649.53;;;-143.00;100.00
48358;BME280;41929;51.478;-0.026;2022-12-10T00:56:22;78657.41;;;-143.00;100.00
48358;BME280;41929;51.478;-0.026;2022-12-10T00:58:48;78673.19;;;-143.00;100.00
48358;BME280;41929;51.478;-0.026;2022-12-10T01:01:24;78689.00;;;-143.00;100.00
48358;BME280;41929;51.478;-0.026;2022-12-10T01:03:52;78685.03;;;-143.00;100.00
48358;BME280;41929;51.478;-0.026;2022-12-10T01:06:27;78685.03;;;-143.00;100.00
48358;BME280;41929;51.478;-0.026;2022-12-10T01:08:56;78689.00;;;-143.00;100.00
48358;BME280;41929;51.478;-0.026;2022-12-10T01:11:26;78696.88;;;-143.00;100.00
48358;BME280;41929;51.478;-0.026;2022-12-10T01:13:52;78706.75;;;-143.00;100.00
48358;BME280;41929;51.478;-0.026;2022-12-10T01:16:19;78714.66;;;-143.00;100.00
48358;BME280;41929;51.478;-0.026;2022-12-10T01:18:45;78728.47;;;-143.00;100.00
48358;BME280;41929;51.478;-0.026;2022-12-10T01:21:14;78722.53;;;-143.00;100.00
48358;BME280;41929;51.478;-0.026;2022-12-10T01:23:41;78702.81;;;-143.00;100.00
48358;BME280;41929;51.478;-0.026;2022-12-10T01:26:14;78694.91;;;-143.00;100.00
48358;BME280;41929;51.478;-0.026;2022-12-10T01:28:41;78702.81;;;-143.00;100.00
48358;BME280;41929;51.478;-0.026;2022-12-10T01:31:09;78704.78;;;-143.00;100.00
48358;BME280;41929;51.478;-0.026;2022-12-10T01:33:36;78685.03;;;-143.00;100.00
48358;BME280;41929;51.478;-0.026;2022-12-10T01:36:28;78667.28;;;-143.00;100.00
48358;BME280;41929;51.478;-0.026;2022-12-10T01:38:52;78655.44;;;-143.00;100.00
48358;BME280;41929;51.478;-0.026;2022-12-10T01:41:21;78653.47;;;-143.00;100.00
48358;BME280;41929;51.478;-0.026;2022-12-10T01:46:26;78653.47;;;-143.00;100.00
48358;BME280;41929;51.478;-0.026;2022-12-10T01:48:52;78655.44;;;-143.00;100.00
48358;BME280;41929;51.478;-0.026;2022-12-10T01:51:18;78651.50;;;-143.00;100.00
48358;BME280;41929;51.478;-0.026;2022-12-10T01:53:45;78639.66;;;-143.00;100.00
48358;BME280;41929;51.478;-0.026;2022-12-10T01:56:11;78637.69;;;-143.00;100.00
48358;BME280;41929;51.478;-0.026;2022-12-10T01:58:37;78645.56;;;-143.00;100.00
48358;BME280;41929;51.478;-0.026;2022-12-10T02:01:15;78661.34;;;-143.00;100.00
48358;BME280;41929;51.478;-0.026;2022-12-10T02:03:56;78663.34;;;-143.00;100.00
48358;BME280;41929;51.478;-0.026;2022-12-10T02:09:07;78692.94;;;-143.00;100.00
48358;BME280;41929;51.478;-0.026;2022-12-10T02:12:09;78679.13;;;-143.00;100.00
48358;BME280;41929;51.478;-0.026;2022-12-10T02:14:43;78667.28;;;-143.00;100.00
48358;BME280;41929;51.478;-0.026;2022-12-10T02:17:24;78673.19;;;-143.00;100.00
48358;BME280;41929;51.478;-0.026;2022-12-10T02:22:39;78663.34;;;-143.00;100.00
48358;BME280;41929;51.478;-0.026;2022-12-10T02:25:07;78687.00;;;-143.00;100.00
48358;BME280;41929;51.478;-0.026;2022-12-10T02:30:08;78714.66;;;-143.00;100.00
48358;BME280;41929;51.478;-0.026;2022-12-10T02:32:37;78726.50;;;-143.00;100.00
48358;BME280;41929;51.478;-0.026;2022-12-10T02:35:07;78746.22;;;-143.00;100.00
48358;BME280;41929;51.478;-0.026;2022-12-10T02:37:37;78738.31;;;-143.00;100.00
48358;BME280;41929;51.478;-0.026;2022-12-10T02:40:08;78736.34;;;-143.00;100.00
48358;BME280;41929;51.478;-0.026;2022-12-10T02:42:37;78742.28;;;-143.00;100.00
48358;BME280;41929;51.478;-0.026;2022-12-10T02:45:05;78746.22;;;-143.00;100.00
48358;BME280;41929;51.478;-0.026;2022-12-10T02:47:30;78742.28;;;-143.00;100.00
48358;BME280;41929;51.478;-0.026;2022-12-10T02:49:57;78752.16;;;-143.00;100.00
48358;BME280;41929;51.478;-0.026;2022-12-10T02:52:24;78758.06;;;-143.00;100.00
48358;BME280;41929;51.478;-0.026;2022-12-10T02:54:50;78746.22;;;-143.00;100.00
48358;BME280;41929;51.478;-0.026;2022-12-10T03:07:51;78706.75;;;-143.00;100.00
48358;BME280;41929;51.478;-0.026;2022-12-10T03:13:03;78710.69;;;-143.00;100.00
48358;BME280;41929;51.478;-0.026;2022-12-10T03:15:33;78704.78;;;-143.00;100.00
48358;BME280;41929;51.478;-0.026;2022-12-10T03:18:01;78696.88;;;-143.00;100.00
48358;BME280;41929;51.478;-0.026;2022-12-10T03:20:30;78687.00;;;-143.00;100.00
48358;BME280;41929;51.478;-0.026;2022-12-10T03:22:57;78687.00;;;-143.00;100.00
48358;BME280;41929;51.478;-0.026;2022-12-10T03:25:24;78685.03;;;-143.00;100.00
48358;BME280;41929;51.478;-0.026;2022-12-10T03:27:54;78690.97;;;-143.00;100.00
48358;BME280;41929;51.478;-0.026;2022-12-10T03:30:20;78702.81;;;-143.00;100.00
48358;BME280;41929;51.478;-0.026;2022-12-10T03:32:46;78712.66;;;-143.00;100.00
48358;BME280;41929;51.478;-0.026;2022-12-10T03:35:13;78728.47;;;-143.00;100.00
48358;BME280;41929;51.478;-0.026;2022-12-10T03:37:39;78734.38;;;-143.00;100.00
48358;BME280;41929;51.478;-0.026;2022-12-10T03:40:05;78730.44;;;-143.00;100.00
48358;BME280;41929;51.478;-0.026;2022-12-10T03:42:31;78726.50;;;-143.00;100.00
48358;BME280;41929;51.478;-0.026;2022-12-10T03:44:57;78734.38;;;-143.00;100.00
48358;BME280;41929;51.478;-0.026;2022-12-10T03:47:23;78760.03;;;-143.00;100.00
48358;BME280;41929;51.478;-0.026;2022-12-10T03:49:49;78758.06;;;-143.00;100.00
48358;BME280;41929;51.478;-0.026;2022-12-10T03:52:14;78762.00;;;-143.00;100.00
48358;BME280;41929;51.478;-0.026;2022-12-10T03:54:40;78756.09;;;-143.00;100.00
48358;BME280;41929;51.478;-0.026;2022-12-10T03:57:05;78744.25;;;-143.00;100.00
48358;BME280;41929;51.478;-0.026;2022-12-10T03:59:30;78740.31;;;-143.00;100.00
48358;BME280;41929;51.478;-0.026;2022-12-10T04:01:56;78738.31;;;-143.00;100.00
48358;BME280;41929;51.478;-0.026;2022-12-10T04:04:21;78746.22;;;-143.00;100.00
48358;BME280;41929;51.478;-0.026;2022-12-10T04:06:46;78728.47;;;-143.00;100.00
48358;BME280;41929;51.478;-0.026;2022-12-10T04:09:13;78724.50;;;-143.00;100.00
48358;BME280;41929;51.478;-0.026;2022-12-10T04:11:39;78720.56;;;-143.00;100.00
48358;BME280;41929;51.478;-0.026;2022-12-10T04:14:04;78734.38;;;-143.00;100.00
48358;BME280;41929;51.478;-0.026;2022-12-10T04:16:48;78730.44;;;-143.00;100.00
48358;BME280;41929;51.478;-0.026;2022-12-10T04:19:16;78722.53;;;-143.00;100.00
48358;BME280;41929;51.478;-0.026;2022-12-10T04:21:43;78706.75;;;-143.00;100.00
48358;BME280;41929;51.478;-0.026;2022-12-10T04:24:29;78702.81;;;-143.00;100.00
48358;BME280;41929;51.478;-0.026;2022-12-10T04:27:37;78710.69;;;-143.00;100.00
48358;BME280;41929;51.478;-0.026;2022-12-10T04:30:05;78716.63;;;-143.00;100.00
48358;BME280;41929;51.478;-0.026;2022-12-10T04:32:31;78726.50;;;-143.00;100.00
48358;BME280;41929;51.478;-0.026;2022-12-10T04:34:57;78714.66;;;-143.00;100.00
48358;BME280;41929;51.478;-0.026;2022-12-10T04:37:24;78710.69;;;-143.00;100.00
48358;BME280;41929;51.478;-0.026;2022-12-10T04:39:50;78702.81;;;-143.00;100.00
48358;BME280;41929;51.478;-0.026;2022-12-10T04:42:16;78700.84;;;-143.00;100.00
48358;BME280;41929;51.478;-0.026;2022-12-10T04:44:41;78704.78;;;-143.00;100.00
48358;BME280;41929;51.478;-0.026;2022-12-10T04:47:08;78738.31;;;-143.00;100.00
48358;BME280;41929;51.478;-0.026;2022-12-10T04:49:34;78758.06;;;-143.00;100.00
48358;BME280;41929;51.478;-0.026;2022-12-10T04:52:00;78744.25;;;-143.00;100.00
48358;BME280;41929;51.478;-0.026;2022-12-10T04:54:26;78738.31;;;-143.00;100.00
48358;BME280;41929;51.478;-0.026;2022-12-10T04:56:51;78750.16;;;-143.00;100.00
48358;BME280;41929;51.478;-0.026;2022-12-10T04:59:16;78760.03;;;-143.00;100.00
48358;BME280;41929;51.478;-0.026;2022-12-10T05:01:42;78740.31;;;-143.00;100.00
48358;BME280;41929;51.478;-0.026;2022-12-10T05:04:10;78738.31;;;-143.00;100.00
48358;BME280;41929;51.478;-0.026;2022-12-10T05:06:36;78740.31;;;-143.00;100.00
48358;BME280;41929;51.478;-0.026;2022-12-10T05:09:02;78720.56;;;-143.00;100.00
48358;BME280;41929;51.478;-0.026;2022-12-10T05:11:29;78724.50;;;-143.00;100.00
48358;BME280;41929;51.478;-0.026;2022-12-10T05:13:55;78728.47;;;-143.00;100.00
48358;BME280;41929;51.478;-0.026;2022-12-10T05:16:22;78722.53;;;-143.00;100.00
48358;BME280;41929;51.478;-0.026;2022-12-10T05:18:49;78716.63;;;-143.00;100.00
48358;BME280;41929;51.478;-0.026;2022-12-10T05:21:16;78726.50;;;-143.00;100.00
48358;BME280;41929;51.478;-0.026;2022-12-10T05:23:44;78744.25;;;-143.00;100.00
48358;BME280;41929;51.478;-0.026;2022-12-10T05:26:19;78752.16;;;-143.00;100.00
48358;BME280;41929;51.478;-0.026;2022-12-10T05:28:47;78758.06;;;-143.00;100.00
48358;BME280;41929;51.478;-0.026;2022-12-10T05:31:21;78765.97;;;-143.00;100.00
48358;BME280;41929;51.478;-0.026;2022-12-10T05:33:47;78779.78;;;-143.00;100.00
48358;BME280;41929;51.478;-0.026;2022-12-10T05:36:15;78779.78;;;-143.00;100.00
48358;BME280;41929;51.478;-0.026;2022-12-10T05:38:41;78777.81;;;-143.00;100.00
48358;BME280;41929;51.478;-0.026;2022-12-10T05:41:13;78781.75;;;-143.00;100.00
48358;BME280;41929;51.478;-0.026;2022-12-10T05:43:39;78769.91;;;-143.00;100.00
48358;BME280;41929;51.478;-0.026;2022-12-10T05:46:09;78773.84;;;-143.00;100.00
48358;BME280;41929;51.478;-0.026;2022-12-10T05:48:35;78773.84;;;-143.00;100.00
48358;BME280;41929;51.478;-0.026;2022-12-10T05:51:09;78783.72;;;-143.00;100.00
48358;BME280;41929;51.478;-0.026;2022-12-10T05:53:35;78785.69;;;-143.00;100.00
48358;BME280;41929;51.478;-0.026;2022-12-10T05:56:02;78760.03;;;-143.00;100.00
48358;BME280;41929;51.478;-0.026;2022-12-10T05:58:28;78758.06;;;-143.00;100.00
48358;BME280;41929;51.478;-0.026;2022-12-10T06:00:55;78769.91;;;-143.00;100.00
48358;BME280;41929;51.478;-0.026;2022-12-10T06:03:20;78767.94;;;-143.00;100.00
48358;BME280;41929;51.478;-0.026;2022-12-10T06:05:46;78775.81;;;-143.00;100.00
48358;BME280;41929;51.478;-0.026;2022-12-10T06:08:11;78777.81;;;-143.00;100.00
48358;BME280;41929;51.478;-0.026;2022-12-10T06:10:36;78773.84;;;-143.00;100.00
48358;BME280;41929;51.478;-0.026;2022-12-10T06:13:03;78783.72;;;-143.00;100.00
48358;BME280;41929;51.478;-0.026;2022-12-10T06:15:29;78785.69;;;-143.00;100.00
48358;BME280;41929;51.478;-0.026;2022-12-10T06:17:55;78787.66;;;-143.00;100.00
48358;BME280;41929;51.478;-0.026;2022-12-10T06:20:22;78793.59;;;-143.00;100.00
48358;BME280;41929;51.478;-0.026;2022-12-10T06:22:47;78799.50;;;-143.00;100.00
48358;BME280;41929;51.478;-0.026;2022-12-10T06:25:12;78805.44;;;-143.00;100.00
48358;BME280;41929;51.478;-0.026;2022-12-10T06:27:38;78809.38;;;-143.00;100.00
48358;BME280;41929;51.478;-0.026;2022-12-10T06:30:04;78819.25;;;-143.00;100.00
48358;BME280;41929;51.478;-0.026;2022-12-10T06:32:29;78815.28;;;-143.00;100.00
48358;BME280;41929;51.478;-0.026;2022-12-10T06:34:55;78815.28;;;-143.00;100.00
48358;BME280;41929;51.478;-0.026;2022-12-10T06:37:20;78829.13;;;-143.00;100.00
48358;BME280;41929;51.478;-0.026;2022-12-10T06:39:45;78821.22;;;-143.00;100.00
48358;BME280;41929;51.478;-0.026;2022-12-10T06:42:11;78817.28;;;-143.00;100.00
48358;BME280;41929;51.478;-0.026;2022-12-10T06:44:36;78801.47;;;-143.00;100.00
48358;BME280;41929;51.478;-0.026;2022-12-10T06:47:01;78777.81;;;-143.00;100.00
48358;BME280;41929;51.478;-0.026;2022-12-10T06:49:27;78777.81;;;-143.00;100.00
48358;BME280;41929;51.478;-0.026;2022-12-10T06:51:52;78769.91;;;-143.00;100.00
48358;BME280;41929;51.478;-0.026;2022-12-10T06:54:17;78779.78;;;-143.00;100.00
48358;BME280;41929;51.478;-0.026;2022-12-10T06:56:43;78785.69;;;-143.00;100.00
48358;BME280;41929;51.478;-0.026;2022-12-10T06:59:08;78781.75;;;-143.00;100.00
48358;BME280;41929;51.478;-0.026;2022-12-10T07:01:34;78775.81;;;-143.00;100.00
48358;BME280;41929;51.478;-0.026;2022-12-10T07:03:59;78773.84;;;-143.00;100.00
48358;BME280;41929;51.478;-0.026;2022-12-10T07:06:26;78765.97;;;-143.00;100.00
48358;BME280;41929;51.478;-0.026;2022-12-10T07:08:53;78758.06;;;-143.00;100.00
48358;BME280;41929;51.478;-0.026;2022-12-10T07:11:21;78758.06;;;-143.00;100.00
48358;BME280;41929;51.478;-0.026;2022-12-10T07:13:46;78760.03;;;-143.00;100.00
48358;BME280;41929;51.478;-0.026;2022-12-10T07:16:21;78767.94;;;-143.00;100.00
48358;BME280;41929;51.478;-0.026;2022-12-10T07:18:47;78769.91;;;-143.00;100.00
48358;BME280;41929;51.478;-0.026;2022-12-10T07:21:22;78777.81;;;-143.00;100.00
48358;BME280;41929;51.478;-0.026;2022-12-10T07:23:48;78781.75;;;-143.00;100.00
48358;BME280;41929;51.478;-0.026;2022-12-10T07:26:14;78783.72;;;-143.00;100.00
48358;BME280;41929;51.478;-0.026;2022-12-10T07:28:40;78795.56;;;-143.00;100.00
48358;BME280;41929;51.478;-0.026;2022-12-10T07:31:07;78805.44;;;-143.00;100.00
48358;BME280;41929;51.478;-0.026;2022-12-10T07:33:33;78797.53;;;-143.00;100.00
48358;BME280;41929;51.478;-0.026;2022-12-10T07:36:03;78793.59;;;-143.00;100.00
48358;BME280;41929;51.478;-0.026;2022-12-10T07:38:29;78779.78;;;-143.00;100.00
48358;BME280;41929;51.478;-0.026;2022-12-10T07:40:54;78779.78;;;-143.00;100.00
48358;BME280;41929;51.478;-0.026;2022-12-10T07:43:19;78763.97;;;-143.00;100.00
48358;BME280;41929;51.478;-0.026;2022-12-10T07:45:45;78765.97;;;-143.00;100.00
48358;BME280;41929;51.478;-0.026;2022-12-10T07:48:11;78767.94;;;-143.00;100.00
48358;BME280;41929;51.478;-0.026;2022-12-10T07:50:37;78771.88;;;-143.00;100.00
48358;BME280;41929;51.478;-0.026;2022-12-10T07:53:03;78767.94;;;-143.00;100.00
48358;BME280;41929;51.478;-0.026;2022-12-10T07:55:28;78765.97;;;-143.00;100.00
48358;BME280;41929;51.478;-0.026;2022-12-10T07:57:54;78740.31;;;-143.00;100.00
48358;BME280;41929;51.478;-0.026;2022-12-10T08:00:19;78734.38;;;-143.00;100.00
48358;BME280;41929;51.478;-0.026;2022-12-10T08:02:44;78752.16;;;-143.00;100.00
48358;BME280;41929;51.478;-0.026;2022-12-10T08:05:10;78762.00;;;-143.00;100.00
48358;BME280;41929;51.478;-0.026;2022-12-10T08:07:36;78767.94;;;-143.00;100.00
48358;BME280;41929;51.478;-0.026;2022-12-10T08:10:02;78758.06;;;-143.00;100.00
48358;BME280;41929;51.478;-0.026;2022-12-10T08:12:27;78748.19;;;-143.00;100.00
48358;BME280;41929;51.478;-0.026;2022-12-10T08:14:53;78746.22;;;-143.00;100.00
48358;BME280;41929;51.478;-0.026;2022-12-10T08:17:18;78748.19;;;-143.00;100.00
48358;BME280;41929;51.478;-0.026;2022-12-10T08:19:43;78750.16;;;-143.00;100.00
48358;BME280;41929;51.478;-0.026;2022-12-10T08:22:09;78738.31;;;-143.00;100.00
48358;BME280;41929;51.478;-0.026;2022-12-10T08:24:34;78706.75;;;-143.00;100.00
48358;BME280;41929;51.478;-0.026;2022-12-10T08:26:59;78685.03;;;-143.00;100.00
48358;BME280;41929;51.478;-0.026;2022-12-10T08:29:25;78608.06;;;-143.00;100.00
48358;BME280;41929;51.478;-0.026;2022-12-10T08:31:50;78529.13;;;-143.00;100.00
48358;BME280;41929;51.478;-0.026;2022-12-10T08:34:17;78471.91;;;-143.00;100.00
48358;BME280;41929;51.478;-0.026;2022-12-10T08:36:44;78422.56;;;-143.00;100.00
48358;BME280;41929;51.478;-0.026;2022-12-10T08:39:10;78349.56;;;-143.00;100.00
48358;BME280;41929;51.478;-0.026;2022-12-10T08:41:41;78312.06;;;-143.00;100.00
48358;BME280;41929;51.478;-0.026;2022-12-10T08:44:06;78225.22;;;-143.00;100.00
48358;BME280;41929;51.478;-0.026;2022-12-10T08:46:32;78191.69;;;-143.00;100.00
48358;BME280;41929;51.478;-0.026;2022-12-10T08:48:58;78130.50;;;-143.00;100.00
48358;BME280;41929;51.478;-0.026;2022-12-10T08:51:24;78075.25;;;-143.00;100.00
48358;BME280;41929;51.478;-0.026;2022-12-10T08:53:50;78035.78;;;-143.00;100.00
48358;BME280;41929;51.478;-0.026;2022-12-10T08:56:15;78021.97;;;-143.00;100.00
48358;BME280;41929;51.478;-0.026;2022-12-10T08:58:41;77982.53;;;-143.00;100.00
48358;BME280;41929;51.478;-0.026;2022-12-10T09:01:11;77992.38;;;-143.00;100.00
48358;BME280;41929;51.478;-0.026;2022-12-10T09:06:05;77990.41;;;-143.00;100.00
48358;BME280;41929;51.478;-0.026;2022-12-10T09:08:31;77978.56;;;-143.00;100.00
48358;BME280;41929;51.478;-0.026;2022-12-10T09:11:03;77941.09;;;-143.00;100.00
48358;BME280;41929;51.478;-0.026;2022-12-10T09:13:29;77903.59;;;-143.00;100.00
48358;BME280;41929;51.478;-0.026;2022-12-10T09:20:59;77749.69;;;-143.00;100.00
48358;BME280;41929;51.478;-0.026;2022-12-10T09:23:24;77694.44;;;-143.00;100.00
48358;BME280;41929;51.478;-0.026;2022-12-10T09:25:50;77664.84;;;-143.00;100.00
48358;BME280;41929;51.478;-0.026;2022-12-10T09:28:15;77755.59;;;-143.00;100.00
48358;BME280;41929;51.478;-0.026;2022-12-10T09:30:41;77941.09;;;-143.00;100.00
48358;BME280;41929;51.478;-0.026;2022-12-10T09:33:07;78020.00;;;-143.00;100.00
48358;BME280;41929;51.478;-0.026;2022-12-10T09:35:32;78055.53;;;-143.00;100.00
48358;BME280;41929;51.478;-0.026;2022-12-10T09:37:58;78075.25;;;-143.00;100.00
48358;BME280;41929;51.478;-0.026;2022-12-10T09:40:40;77939.09;;;-143.00;100.00
48358;BME280;41929;51.478;-0.026;2022-12-10T09:43:48;77824.66;;;-143.00;100.00
48358;BME280;41929;51.478;-0.026;2022-12-10T09:51:50;77587.91;;;-143.00;100.00
48358;BME280;41929;51.478;-0.026;2022-12-10T09:54:23;77487.28;;;-143.00;100.00
48358;BME280;41929;51.478;-0.026;2022-12-10T09:59:30;77416.25;;;-143.00;100.00
48358;BME280;41929;51.478;-0.026;2022-12-10T10:04:40;77366.94;;;-143.00;100.00
48358;BME280;41929;51.478;-0.026;2022-12-10T10:07:06;77374.81;;;-143.00;91.80
48358;BME280;41929;51.478;-0.026;2022-12-10T10:09:36;77311.69;;;-143.00;94.22
48358;BME280;41929;51.478;-0.026;2022-12-10T10:12:10;77307.75;;;-143.00;96.18
48358;BME280;41929;51.478;-0.026;2022-12-10T10:14:38;77295.91;;;-143.00;92.78
48358;BME280;41929;51.478;-0.026;2022-12-10T10:17:09;77317.59;;;-143.00;94.06
48358;BME280;41929;51.478;-0.026;2022-12-10T10:19:39;77286.03;;;-143.00;85.06
48358;BME280;41929;51.478;-0.026;2022-12-10T10:24:42;77291.94;;;-143.00;84.78
48358;BME280;41929;51.478;-0.026;2022-12-10T10:27:16;77266.31;;;-143.00;87.16
48358;BME280;41929;51.478;-0.026;2022-12-10T10:29:47;77250.53;;;-143.00;85.08
48358;BME280;41929;51.478;-0.026;2022-12-10T10:32:19;77238.69;;;-143.00;78.14
48358;BME280;41929;51.478;-0.026;2022-12-10T10:34:52;77230.78;;;-143.00;82.57
48358;BME280;41929;51.478;-0.026;2022-12-10T10:39:47;77254.47;;;-143.00;78.34
48358;BME280;41929;51.478;-0.026;2022-12-10T10:42:42;77205.16;;;-143.00;80.85
48358;BME280;41929;51.478;-0.026;2022-12-10T10:45:39;77234.75;;;-143.00;75.93
48358;BME280;41929;51.478;-0.026;2022-12-10T10:48:13;77173.59;;;-143.00;81.35
48358;BME280;41929;51.478;-0.026;2022-12-10T10:50:44;77147.94;;;-143.00;79.17
48358;BME280;41929;51.478;-0.026;2022-12-10T10:55:46;77163.72;;;-143.00;75.71
48358;BME280;41929;51.478;-0.026;2022-12-10T10:58:21;77132.16;;;-143.00;71.96
48358;BME280;41929;51.478;-0.026;2022-12-10T11:01:02;77159.78;;;-143.00;71.87
48358;BME280;41929;51.478;-0.026;2022-12-10T11:03:30;77165.69;;;-143.00;73.82
48358;BME280;41929;51.478;-0.026;2022-12-10T11:05:57;77155.81;;;-143.00;71.64
48358;BME280;41929;51.478;-0.026;2022-12-10T11:08:25;77155.81;;;-143.00;70.63
48358;BME280;41929;51.478;-0.026;2022-12-10T11:11:02;77191.34;;;-143.00;70.03
48358;BME280;41929;51.478;-0.026;2022-12-10T11:13:31;77205.16;;;-143.00;71.29
48358;BME280;41929;51.478;-0.026;2022-12-10T11:16:19;77199.22;;;-143.00;73.58
48358;BME280;41929;51.478;-0.026;2022-12-10T11:19:18;77171.59;;;-143.00;71.54
48358;BME280;41929;51.478;-0.026;2022-12-10T11:21:44;77205.16;;;-143.00;70.81
48358;BME280;41929;51.478;-0.026;2022-12-10T11:24:11;77199.22;;;-143.00;73.81
48358;BME280;41929;51.478;-0.026;2022-12-10T11:26:55;77173.59;;;-143.00;69.71
48358;BME280;41929;51.478;-0.026;2022-12-10T11:29:36;77183.44;;;-143.00;68.68
48358;BME280;41929;51.478;-0.026;2022-12-10T11:32:30;77217.00;;;-143.00;70.32
48358;BME280;41929;51.478;-0.026;2022-12-10T11:35:20;77211.06;;;-143.00;67.60
48358;BME280;41929;51.478;-0.026;2022-12-10T11:51:04;77305.75;;;-143.00;65.31
48358;BME280;41929;51.478;-0.026;2022-12-10T11:56:45;77449.78;;;-143.00;68.77
48358;BME280;41929;51.478;-0.026;2022-12-10T11:59:34;77548.44;;;-143.00;73.23
48358;BME280;41929;51.478;-0.026;2022-12-10T12:02:20;77639.19;;;-143.00;77.02
48358;BME280;41929;51.478;-0.026;2022-12-10T12:16:22;77785.19;;;-143.00;87.95
48358;BME280;41929;51.478;-0.026;2022-12-10T12:18:59;77791.13;;;-143.00;89.83
48358;BME280;41929;51.478;-0.026;2022-12-10T12:21:25;77789.16;;;-143.00;89.83
48358;BME280;41929;51.478;-0.026;2022-12-10T12:23:58;77799.00;;;-143.00;89.09
48358;BME280;41929;51.478;-0.026;2022-12-10T12:26:40;77802.97;;;-143.00;89.86
48358;BME280;41929;51.478;-0.026;2022-12-10T12:32:11;77806.91;;;-143.00;92.81
48358;BME280;41929;51.478;-0.026;2022-12-10T12:34:49;77808.88;;;-143.00;92.74
48358;BME280;41929;51.478;-0.026;2022-12-10T12:37:17;77801.00;;;-143.00;92.39
48358;BME280;41929;51.478;-0.026;2022-12-10T12:40:16;77806.91;;;-143.00;92.14
48358;BME280;41929;51.478;-0.026;2022-12-10T12:45:40;77801.00;;;-143.00;91.63
48358;BME280;41929;51.478;-0.026;2022-12-10T12:48:23;77804.94;;;-143.00;91.09
48358;BME280;41929;51.478;-0.026;2022-12-10T12:53:39;77801.00;;;-143.00;91.50
48358;BME280;41929;51.478;-0.026;2022-12-10T12:56:23;77795.06;;;-143.00;91.28
48358;BME280;41929;51.478;-0.026;2022-12-10T13:04:09;77781.25;;;-143.00;89.28
48358;BME280;41929;51.478;-0.026;2022-12-10T13:06:37;77779.28;;;-143.00;90.59
48358;BME280;41929;51.478;-0.026;2022-12-10T13:11:42;77779.28;;;-143.00;89.85
48358;BME280;41929;51.478;-0.026;2022-12-10T13:19:29;77783.22;;;-143.00;89.92
48358;BME280;41929;51.478;-0.026;2022-12-10T13:22:08;77775.34;;;-143.00;89.69
48358;BME280;41929;51.478;-0.026;2022-12-10T13:27:34;77814.81;;;-143.00;90.30
48358;BME280;41929;51.478;-0.026;2022-12-10T13:49:00;77952.91;;;-143.00;100.00
48358;BME280;41929;51.478;-0.026;2022-12-10T14:06:54;77820.72;;;-143.00;100.00
48358;BME280;41929;51.478;-0.026;2022-12-10T14:11:56;77799.00;;;-143.00;99.48
48358;BME280;41929;51.478;-0.026;2022-12-10T14:17:04;77791.13;;;-143.00;98.49
48358;BME280;41929;51.478;-0.026;2022-12-10T14:19:33;77802.97;;;-143.00;98.31
48358;BME280;41929;51.478;-0.026;2022-12-10T14:24:39;77822.69;;;-143.00;98.14
48358;BME280;41929;51.478;-0.026;2022-12-10T14:27:14;77836.50;;;-143.00;98.87
48358;BME280;41929;51.478;-0.026;2022-12-10T14:29:48;77852.28;;;-143.00;99.92
48358;BME280;41929;51.478;-0.026;2022-12-10T14:34:51;77868.06;;;-143.00;100.00
48358;BME280;41929;51.478;-0.026;2022-12-10T14:39:56;77864.13;;;-143.00;100.00
48358;BME280;41929;51.478;-0.026;2022-12-10T14:42:23;77870.03;;;-143.00;100.00
48358;BME280;41929;51.478;-0.026;2022-12-10T14:44:59;77868.06;;;-143.00;100.00
48358;BME280;41929;51.478;-0.026;2022-12-10T14:47:26;77877.94;;;-143.00;100.00
48358;BME280;41929;51.478;-0.026;2022-12-10T14:55:39;77909.50;;;-143.00;100.00
48358;BME280;41929;51.478;-0.026;2022-12-10T15:00:40;77935.16;;;-143.00;100.00
48358;BME280;41929;51.478;-0.026;2022-12-10T15:05:41;77952.91;;;-143.00;100.00
48358;BME280;41929;51.478;-0.026;2022-12-10T15:10:48;77984.50;;;-143.00;100.00
48358;BME280;41929;51.478;-0.026;2022-12-10T15:15:52;78025.94;;;-143.00;100.00
48358;BME280;41929;51.478;-0.026;2022-12-10T15:18:37;78043.69;;;-143.00;100.00